Companheiros Cristo — CUCS8 — position and weather

sailwx.info

Track history (hours):
 
Tides and Currents Weather Stations Pressure Air Temp Water Temp Dewpoint Dewpoint Depression Visibility Wind Speed Wind Dir Waves Ship Positions

Companheiros Cristo

Last reported at 2018-Jan-20 23:21 UTC. Time now 2018-Jan-21 03:10 UTC.
Position N 38°48' W 009°40'.

MMSI: 263406390.

Date/timePositionNaut miles runAvg speedWind from/ knotsBaromVisibWave heightAir tempDewpointWater temp
2018-Jan-20 23:21N 38°48' W 009°40'  
2018-Jan-18 14:00N 39°01' W 009°32'4 7.8
2018-Jan-18 13:30N 39°05' W 009°31'4 7.9
2018-Jan-18 13:00N 39°09' W 009°29'4 8.3
2018-Jan-18 12:30N 39°13' W 009°28'4 8.3
2018-Jan-18 11:59N 39°17' W 009°26'  
2018-Jan-12 02:12N 39°02' W 009°42'1 7.5
2018-Jan-12 02:00N 39°03' W 009°41'4 7.3
2018-Jan-12 01:30N 39°06' W 009°38'4 7.1
2018-Jan-12 01:00N 39°08' W 009°35'4 7.2
2018-Jan-12 00:25N 39°12' W 009°32'3 7.2
2018-Jan-12 00:00N 39°14' W 009°30'4 7.1
2018-Jan-11 23:24N 39°17' W 009°26'2 0.2
2018-Jan-11 11:17N 39°16' W 009°24'3 7.9
2018-Jan-11 10:56N 39°13' W 009°25'  
Track history (hours):
 
Tides and Currents Weather Stations Pressure Air Temp Water Temp Dewpoint Dewpoint Depression Visibility Wind Speed Wind Dir Waves Ship Positions

Companheiros Cristo

Last reported at 2018-Jan-20 23:21 UTC. Time now 2018-Jan-21 03:10 UTC.
Position N 38°48' W 009°40'.

MMSI: 263406390.

Date/timePositionNaut miles runAvg speedWind from/ knotsBaromVisibWave heightAir tempDewpointWater temp
2018-Jan-20 23:21N 38°48' W 009°40'  
2018-Jan-18 14:00N 39°01' W 009°32'4 7.8
2018-Jan-18 13:30N 39°05' W 009°31'4 7.9
2018-Jan-18 13:00N 39°09' W 009°29'4 8.3
2018-Jan-18 12:30N 39°13' W 009°28'4 8.3
2018-Jan-18 11:59N 39°17' W 009°26'  
2018-Jan-12 02:12N 39°02' W 009°42'1 7.5
2018-Jan-12 02:00N 39°03' W 009°41'4 7.3
2018-Jan-12 01:30N 39°06' W 009°38'4 7.1
2018-Jan-12 01:00N 39°08' W 009°35'4 7.2
2018-Jan-12 00:25N 39°12' W 009°32'3 7.2
2018-Jan-12 00:00N 39°14' W 009°30'4 7.1
2018-Jan-11 23:24N 39°17' W 009°26'2 0.2
2018-Jan-11 11:17N 39°16' W 009°24'3 7.9
2018-Jan-11 10:56N 39°13' W 009°25'  

Dump ship's entire track history